createdAt,value
2018-04-07T00:01:34.634Z,11.00
2018-04-07T00:04:01.480Z,10.68
2018-04-07T00:06:28.456Z,11.93
2018-04-07T00:08:55.410Z,13.05
2018-04-07T00:11:22.249Z,13.93
2018-04-07T00:13:49.118Z,12.57
2018-04-07T00:16:15.994Z,11.52
2018-04-07T00:18:42.852Z,10.30
2018-04-07T00:21:09.756Z,16.52
2018-04-07T00:23:36.654Z,13.02
2018-04-07T00:26:03.528Z,13.90
2018-04-07T00:28:30.416Z,15.00
2018-04-07T00:30:57.308Z,14.00
2018-04-07T00:33:24.262Z,13.60
2018-04-07T00:35:51.162Z,13.00
2018-04-07T00:38:18.013Z,12.25
2018-04-07T00:40:44.987Z,12.63
2018-04-07T00:43:11.868Z,14.23
2018-04-07T00:45:38.745Z,11.70
2018-04-07T00:48:05.557Z,10.93
2018-04-07T00:50:32.521Z,15.05
2018-04-07T00:52:59.460Z,16.12
2018-04-07T00:55:26.347Z,11.95
2018-04-07T00:57:54.597Z,11.15
2018-04-07T01:00:21.565Z,15.57
2018-04-07T01:02:48.363Z,9.55
2018-04-07T01:05:15.239Z,14.98
2018-04-07T01:07:42.046Z,14.68
2018-04-07T01:10:08.895Z,12.82
2018-04-07T01:12:35.832Z,17.42
2018-04-07T01:15:02.721Z,13.57
2018-04-07T01:17:29.615Z,16.48
2018-04-07T01:19:56.459Z,16.60
2018-04-07T01:22:23.350Z,13.18
2018-04-07T01:24:50.199Z,15.93
2018-04-07T01:27:17.065Z,11.80
2018-04-07T01:29:44.039Z,12.80
2018-04-07T01:32:10.947Z,17.87
2018-04-07T01:34:37.845Z,16.75
2018-04-07T01:37:04.684Z,14.82
2018-04-07T01:39:31.596Z,12.15
2018-04-07T01:41:58.460Z,14.95
2018-04-07T01:44:25.337Z,14.00
2018-04-07T01:46:52.223Z,14.52
2018-04-07T01:49:20.402Z,11.98
2018-04-07T01:51:47.205Z,15.65
2018-04-07T01:54:14.121Z,13.70
2018-04-07T01:56:41.055Z,15.20
2018-04-07T01:59:07.989Z,15.65
2018-04-07T02:01:34.781Z,14.02
2018-04-07T02:04:01.662Z,16.70
2018-04-07T02:06:28.588Z,15.38
2018-04-07T02:08:55.453Z,13.48
2018-04-07T02:11:22.346Z,13.30
2018-04-07T02:13:49.203Z,19.67
2018-04-07T02:16:16.268Z,12.70
2018-04-07T02:18:43.128Z,13.62
2018-04-07T02:21:09.988Z,14.02
2018-04-07T02:23:36.945Z,15.02
2018-04-07T02:26:03.758Z,16.37
2018-04-07T02:28:30.656Z,12.37
2018-04-07T02:30:57.513Z,12.07
2018-04-07T02:33:24.517Z,16.50
2018-04-07T02:35:51.413Z,20.17
2018-04-07T02:38:18.360Z,19.23
2018-04-07T02:40:45.219Z,14.98
2018-04-07T02:43:12.068Z,16.33
2018-04-07T02:45:38.944Z,13.93
2018-04-07T02:48:05.909Z,12.48
2018-04-07T02:50:32.808Z,14.15
2018-04-07T02:52:59.741Z,17.10
2018-04-07T02:55:26.623Z,12.95
2018-04-07T02:57:54.852Z,12.80
2018-04-07T03:00:21.717Z,15.82
2018-04-07T03:02:48.589Z,14.10
2018-04-07T03:05:15.402Z,14.15
2018-04-07T03:07:42.350Z,13.95
2018-04-07T03:10:09.253Z,14.80
2018-04-07T03:12:36.125Z,16.60
2018-04-07T03:15:03.017Z,14.25
2018-04-07T03:17:29.867Z,16.08
2018-04-07T03:19:56.790Z,16.35
2018-04-07T03:22:23.637Z,12.07
2018-04-07T03:24:50.510Z,11.63
2018-04-07T03:27:17.388Z,14.65
2018-04-07T03:29:44.265Z,16.98
2018-04-07T03:32:11.157Z,13.35
2018-04-07T03:34:38.009Z,14.57
2018-04-07T03:37:04.882Z,14.27
2018-04-07T03:39:31.744Z,17.77
2018-04-07T03:41:58.705Z,15.68
2018-04-07T03:44:25.590Z,16.25
2018-04-07T03:46:52.551Z,14.87
2018-04-07T03:49:19.493Z,16.83
2018-04-07T03:51:46.422Z,18.60
2018-04-07T03:54:13.309Z,13.48
2018-04-07T03:56:40.193Z,15.40
2018-04-07T03:59:07.099Z,13.30
2018-04-07T04:01:33.931Z,14.63
2018-04-07T04:04:00.851Z,18.37
2018-04-07T04:06:27.644Z,18.05
2018-04-07T04:08:54.487Z,14.93
2018-04-07T04:11:21.350Z,13.65
2018-04-07T04:13:48.288Z,16.23
2018-04-07T04:16:15.299Z,14.87
2018-04-07T04:18:42.150Z,13.70
2018-04-07T04:21:09.100Z,18.80
2018-04-07T04:23:35.945Z,17.50
2018-04-07T04:26:02.794Z,12.98
2018-04-07T04:28:29.672Z,15.25
2018-04-07T04:30:56.614Z,13.70
2018-04-07T04:33:23.466Z,16.48
2018-04-07T04:35:50.305Z,17.33
2018-04-07T04:38:17.211Z,21.92
2018-04-07T04:40:44.075Z,16.08
2018-04-07T04:43:10.942Z,17.58
2018-04-07T04:45:37.817Z,17.75
2018-04-07T04:48:04.678Z,19.58
2018-04-07T04:50:31.512Z,18.12
2018-04-07T04:52:58.421Z,13.05
2018-04-07T04:55:25.368Z,12.32
2018-04-07T04:57:52.354Z,15.55
2018-04-07T05:00:19.178Z,16.52
2018-04-07T05:02:46.143Z,17.17
2018-04-07T05:05:13.001Z,17.85
2018-04-07T05:07:39.910Z,19.30
2018-04-07T05:10:06.844Z,16.55
2018-04-07T05:12:33.672Z,17.87
2018-04-07T05:15:00.598Z,18.48
2018-04-07T05:17:27.434Z,15.32
2018-04-07T05:19:54.352Z,16.80
2018-04-07T05:22:21.186Z,14.25
2018-04-07T05:24:48.044Z,16.37
2018-04-07T05:27:14.895Z,16.37
2018-04-07T05:29:41.716Z,19.17
2018-04-07T05:32:08.564Z,19.55
2018-04-07T05:34:35.409Z,16.35
2018-04-07T05:37:02.223Z,13.70
2018-04-07T05:39:29.066Z,18.13
2018-04-07T05:41:55.836Z,16.83
2018-04-07T05:44:22.730Z,13.70
2018-04-07T05:46:49.584Z,15.50
2018-04-07T05:49:16.482Z,14.73
2018-04-07T05:51:43.305Z,23.87
2018-04-07T05:54:10.126Z,18.97
2018-04-07T05:56:36.947Z,18.67
2018-04-07T05:59:03.794Z,14.13
2018-04-07T06:01:30.627Z,16.07
2018-04-07T06:03:57.462Z,16.43
2018-04-07T06:06:24.314Z,19.00
2018-04-07T06:08:51.131Z,14.43
2018-04-07T06:11:17.946Z,15.50
2018-04-07T06:13:44.811Z,14.60
2018-04-07T06:16:11.865Z,17.70
2018-04-07T06:18:38.792Z,15.43
2018-04-07T06:21:05.761Z,16.57
2018-04-07T06:23:32.652Z,18.83
2018-04-07T06:25:59.538Z,22.93
2018-04-07T06:28:26.451Z,23.73
2018-04-07T06:30:53.318Z,22.23
2018-04-07T06:33:20.115Z,19.60
2018-04-07T06:35:46.958Z,15.37
2018-04-07T06:38:13.820Z,14.30
2018-04-07T06:40:40.643Z,17.53
2018-04-07T06:43:07.523Z,14.70
2018-04-07T06:45:34.435Z,14.17
2018-04-07T06:48:01.305Z,14.03
2018-04-07T06:50:28.984Z,18.53
2018-04-07T06:52:55.906Z,15.97
2018-04-07T06:55:32.020Z,16.90
2018-04-07T06:57:59.115Z,17.07
2018-04-07T07:00:26.027Z,16.23
2018-04-07T07:02:52.894Z,17.27
2018-04-07T07:05:19.802Z,15.93
2018-04-07T07:07:46.678Z,17.10
2018-04-07T07:10:13.542Z,15.63
2018-04-07T07:12:40.425Z,15.90
2018-04-07T07:15:07.674Z,16.23
2018-04-07T07:17:34.602Z,18.43
2018-04-07T07:20:01.458Z,16.07
2018-04-07T07:22:28.321Z,17.70
2018-04-07T07:24:55.210Z,17.43
2018-04-07T07:27:22.114Z,17.37
2018-04-07T07:29:48.945Z,17.90
2018-04-07T07:32:15.830Z,20.97
2018-04-07T07:34:42.783Z,18.07
2018-04-07T07:37:09.604Z,19.20
2018-04-07T07:39:36.502Z,17.63
2018-04-07T07:42:03.369Z,17.37
2018-04-07T07:44:30.227Z,15.60
2018-04-07T07:46:57.136Z,17.50
2018-04-07T07:49:24.028Z,20.67
2018-04-07T07:51:50.899Z,20.63
2018-04-07T07:54:17.716Z,17.93
2018-04-07T07:56:44.572Z,18.13
2018-04-07T07:59:11.379Z,17.90
2018-04-07T08:01:38.310Z,19.63
2018-04-07T08:04:05.197Z,20.73
2018-04-07T08:06:32.069Z,20.17
2018-04-07T08:08:58.952Z,19.77
2018-04-07T08:11:25.881Z,20.20
2018-04-07T08:13:52.715Z,21.80
2018-04-07T08:16:19.680Z,17.27
2018-04-07T08:18:46.555Z,19.90
2018-04-07T08:21:13.455Z,20.77
2018-04-07T08:23:40.321Z,19.93
2018-04-07T08:26:07.235Z,19.13
2018-04-07T08:28:34.096Z,22.97
2018-04-07T08:31:01.106Z,20.33
2018-04-07T08:33:28.088Z,19.70
2018-04-07T08:35:54.929Z,18.90
2018-04-07T08:38:21.836Z,18.37
2018-04-07T08:40:48.675Z,19.60
2018-04-07T08:43:15.549Z,16.67
2018-04-07T08:45:42.375Z,18.57
2018-04-07T08:48:09.292Z,18.20
2018-04-07T08:50:41.952Z,19.47
2018-04-07T08:53:08.788Z,16.77
2018-04-07T08:55:35.663Z,17.50
2018-04-07T08:58:02.533Z,20.73
2018-04-07T09:00:29.362Z,15.80
2018-04-07T09:02:56.183Z,20.10
2018-04-07T09:05:23.054Z,18.20
2018-04-07T09:07:49.918Z,22.30
2018-04-07T09:10:16.778Z,20.17
2018-04-07T09:12:43.773Z,18.17
2018-04-07T09:15:10.703Z,17.80
2018-04-07T09:17:37.625Z,16.63
2018-04-07T09:20:04.511Z,17.37
2018-04-07T09:22:31.386Z,16.17
2018-04-07T09:24:58.268Z,17.77
2018-04-07T09:27:25.173Z,15.07
2018-04-07T09:29:52.012Z,14.27
2018-04-07T09:32:18.913Z,17.83
2018-04-07T09:34:46.019Z,14.50
2018-04-07T09:37:12.952Z,13.67
2018-04-07T09:39:39.882Z,18.57
2018-04-07T09:42:06.779Z,12.63
2018-04-07T09:44:33.658Z,17.57
2018-04-07T09:47:00.812Z,16.30
2018-04-07T09:49:27.780Z,15.53
2018-04-07T09:51:54.673Z,19.50
2018-04-07T09:54:21.621Z,15.20
2018-04-07T09:56:48.543Z,14.70
2018-04-07T09:59:15.439Z,14.23
2018-04-07T10:01:42.413Z,17.60
2018-04-07T10:04:09.366Z,12.87
2018-04-07T10:06:41.940Z,14.70
2018-04-07T10:09:08.964Z,15.53
2018-04-07T10:11:35.856Z,13.53
2018-04-07T10:14:02.791Z,18.70
2018-04-07T10:16:29.681Z,13.43
2018-04-07T10:18:56.658Z,14.23
2018-04-07T10:21:23.570Z,16.37
2018-04-07T10:23:50.388Z,16.60
2018-04-07T10:26:17.289Z,14.95
2018-04-07T10:28:44.138Z,16.87
2018-04-07T10:31:11.012Z,14.02
2018-04-07T10:33:37.975Z,13.62
2018-04-07T10:36:04.938Z,16.17
2018-04-07T10:38:35.881Z,15.88
2018-04-07T10:41:07.395Z,13.00
2018-04-07T10:43:43.548Z,12.80
2018-04-07T10:46:21.542Z,13.77
2018-04-07T10:49:00.435Z,10.45
2018-04-07T10:51:28.210Z,14.43
2018-04-07T10:53:55.097Z,13.98
2018-04-07T10:56:21.992Z,14.57
2018-04-07T10:58:48.848Z,11.48
2018-04-07T11:01:15.746Z,12.50
2018-04-07T11:03:42.752Z,12.27
2018-04-07T11:06:09.640Z,14.85
2018-04-07T11:08:36.548Z,14.73
2018-04-07T11:11:03.384Z,12.85
2018-04-07T11:13:30.311Z,13.68
2018-04-07T11:15:57.199Z,14.80
2018-04-07T11:18:24.087Z,13.13
2018-04-07T11:20:50.907Z,12.80
2018-04-07T11:23:17.794Z,13.82
2018-04-07T11:25:44.630Z,13.45
2018-04-07T11:28:11.503Z,12.45
2018-04-07T11:30:38.580Z,11.75
2018-04-07T11:33:05.528Z,10.95
2018-04-07T11:35:32.479Z,13.05
2018-04-07T11:37:59.416Z,13.13
2018-04-07T11:40:26.328Z,12.40
2018-04-07T11:42:53.200Z,12.85
2018-04-07T11:45:20.048Z,14.00
2018-04-07T11:47:46.939Z,11.12
2018-04-07T11:50:13.918Z,12.65
2018-04-07T11:52:40.853Z,12.68
2018-04-07T11:55:07.654Z,12.57
2018-04-07T11:57:34.503Z,10.57
2018-04-07T12:00:01.377Z,10.73
2018-04-07T12:02:28.234Z,11.43
2018-04-07T12:04:55.100Z,10.97
2018-04-07T12:07:22.003Z,17.57
2018-04-07T12:09:48.885Z,8.30
2018-04-07T12:12:15.766Z,11.80
2018-04-07T12:14:42.585Z,10.80
2018-04-07T12:17:09.441Z,9.30
2018-04-07T12:19:36.312Z,10.37
2018-04-07T12:22:03.191Z,11.60
2018-04-07T12:24:30.071Z,11.37
2018-04-07T12:26:56.992Z,11.90
2018-04-07T12:29:23.852Z,13.17
2018-04-07T12:31:50.699Z,12.87
2018-04-07T12:34:17.548Z,15.93
2018-04-07T12:36:44.524Z,14.63
2018-04-07T12:39:11.394Z,12.93
2018-04-07T12:41:38.314Z,11.47
2018-04-07T12:44:05.210Z,13.13
2018-04-07T12:46:32.094Z,10.80
2018-04-07T12:48:59.007Z,12.68
2018-04-07T12:51:25.908Z,12.30
2018-04-07T12:53:52.855Z,13.27
2018-04-07T12:56:19.684Z,9.33
2018-04-07T12:58:46.690Z,10.47
2018-04-07T13:01:13.755Z,11.77
2018-04-07T13:03:40.640Z,12.20
2018-04-07T13:06:07.535Z,11.87
2018-04-07T13:08:34.500Z,13.97
2018-04-07T13:11:01.535Z,14.37
2018-04-07T13:13:28.361Z,13.53
2018-04-07T13:15:55.269Z,11.03
2018-04-07T13:18:22.159Z,13.10
2018-04-07T13:20:49.038Z,13.10
2018-04-07T13:23:16.021Z,11.10
2018-04-07T13:25:42.893Z,11.67
2018-04-07T13:28:09.848Z,12.20
2018-04-07T13:30:36.804Z,13.60
2018-04-07T13:33:03.668Z,12.47
2018-04-07T13:35:30.580Z,12.73
2018-04-07T13:37:57.517Z,13.37
2018-04-07T13:40:24.356Z,11.10
2018-04-07T13:42:51.194Z,14.20
2018-04-07T13:45:18.074Z,15.50
2018-04-07T13:47:54.395Z,14.87
2018-04-07T13:50:29.060Z,17.53
2018-04-07T13:53:04.783Z,15.57
2018-04-07T13:55:44.863Z,16.50
2018-04-07T13:58:20.409Z,14.47
2018-04-07T14:00:56.737Z,19.07
2018-04-07T14:03:34.313Z,14.30
2018-04-07T14:06:10.100Z,16.73
2018-04-07T14:08:46.266Z,15.73
2018-04-07T14:11:24.135Z,18.13
2018-04-07T14:14:08.117Z,15.40
2018-04-07T14:16:49.157Z,19.33
2018-04-07T14:19:26.423Z,18.43
2018-04-07T14:22:22.082Z,22.00
2018-04-07T14:24:59.804Z,24.40
2018-04-07T14:27:33.664Z,20.17
2018-04-07T14:30:15.995Z,18.27
2018-04-07T14:32:53.747Z,19.07
2018-04-07T14:35:33.409Z,16.80
2018-04-07T14:38:10.659Z,15.63
2018-04-07T14:40:45.989Z,17.47
2018-04-07T14:43:19.578Z,18.03
2018-04-07T14:45:46.680Z,16.87
2018-04-07T14:48:13.638Z,16.77
2018-04-07T14:50:40.491Z,19.50
2018-04-07T14:53:07.419Z,15.83
2018-04-07T14:55:34.508Z,21.00
2018-04-07T14:58:01.381Z,20.33
2018-04-07T15:00:28.255Z,22.20
2018-04-07T15:02:55.140Z,18.13
2018-04-07T15:05:21.999Z,23.57
2018-04-07T15:07:48.803Z,19.03
2018-04-07T15:10:15.696Z,19.30
2018-04-07T15:12:42.623Z,17.00
2018-04-07T15:15:09.440Z,19.57
2018-04-07T15:17:36.462Z,18.60
2018-04-07T15:20:03.499Z,22.10
2018-04-07T15:22:30.346Z,21.83
2018-04-07T15:24:57.261Z,18.40
2018-04-07T15:27:24.125Z,26.33
2018-04-07T15:29:50.964Z,19.57
2018-04-07T15:32:17.888Z,20.53
2018-04-07T15:34:44.754Z,22.50
2018-04-07T15:37:11.617Z,19.57
2018-04-07T15:39:38.478Z,20.80
2018-04-07T15:42:05.373Z,22.20
2018-04-07T15:44:32.246Z,19.37
2018-04-07T15:46:59.287Z,21.93
2018-04-07T15:49:26.187Z,19.27
2018-04-07T15:51:53.063Z,21.93
2018-04-07T15:54:19.959Z,21.90
2018-04-07T15:56:46.880Z,21.80
2018-04-07T15:59:13.712Z,23.50
2018-04-07T16:01:40.556Z,24.97
2018-04-07T16:04:07.435Z,20.37
2018-04-07T16:06:34.514Z,19.30
2018-04-07T16:09:01.464Z,20.50
2018-04-07T16:11:28.308Z,20.03
2018-04-07T16:13:55.192Z,20.33
2018-04-07T16:16:22.153Z,18.77
2018-04-07T16:18:49.091Z,20.13
2018-04-07T16:21:16.163Z,20.53
2018-04-07T16:23:43.082Z,22.33
2018-04-07T16:26:09.975Z,21.43
2018-04-07T16:28:36.840Z,25.13
2018-04-07T16:31:03.708Z,27.00
2018-04-07T16:33:30.649Z,25.10
2018-04-07T16:35:57.534Z,22.97
2018-04-07T16:38:24.365Z,24.20
2018-04-07T16:40:51.241Z,26.30
2018-04-07T16:43:18.096Z,21.93
2018-04-07T16:45:45.078Z,25.20
2018-04-07T16:48:11.925Z,23.00
2018-04-07T16:50:38.885Z,22.33
2018-04-07T16:53:05.754Z,24.90
2018-04-07T16:55:32.665Z,25.63
2018-04-07T16:57:59.609Z,28.10
2018-04-07T17:00:26.547Z,26.40
2018-04-07T17:02:53.481Z,23.60
2018-04-07T17:05:20.376Z,25.20
2018-04-07T17:07:47.227Z,26.80
2018-04-07T17:10:14.196Z,27.57
2018-04-07T17:12:41.103Z,24.40
2018-04-07T17:15:08.472Z,26.80
2018-04-07T17:17:35.399Z,24.10
2018-04-07T17:20:02.329Z,25.00
2018-04-07T17:22:29.224Z,24.07
2018-04-07T17:24:56.162Z,22.83
2018-04-07T17:27:23.042Z,24.70
2018-04-07T17:29:50.003Z,25.13
2018-04-07T17:32:16.916Z,25.20
2018-04-07T17:34:43.751Z,23.60
2018-04-07T17:37:10.656Z,25.33
2018-04-07T17:39:37.518Z,27.43
2018-04-07T17:42:04.407Z,23.57
2018-04-07T17:44:31.340Z,22.13
2018-04-07T17:46:58.340Z,24.17
2018-04-07T17:49:26.204Z,24.60
2018-04-07T17:51:53.130Z,26.87
2018-04-07T17:54:20.042Z,25.90
2018-04-07T17:56:46.962Z,22.23
2018-04-07T17:59:13.823Z,27.07
2018-04-07T18:01:40.714Z,25.47
2018-04-07T18:04:09.066Z,26.67
2018-04-07T18:06:36.000Z,22.23
2018-04-07T18:09:02.958Z,27.90
2018-04-07T18:11:29.915Z,27.90
2018-04-07T18:13:56.795Z,23.10
2018-04-07T18:16:23.674Z,26.50
2018-04-07T18:18:50.674Z,26.57
2018-04-07T18:21:17.566Z,27.37
2018-04-07T18:23:44.471Z,25.73
2018-04-07T18:26:11.402Z,24.53
2018-04-07T18:28:38.273Z,27.13
2018-04-07T18:31:05.117Z,27.27
2018-04-07T18:33:32.149Z,27.33
2018-04-07T18:35:59.034Z,28.10
2018-04-07T18:38:26.027Z,23.63
2018-04-07T18:40:52.964Z,24.87
2018-04-07T18:43:19.936Z,29.27
2018-04-07T18:45:46.887Z,26.97
2018-04-07T18:48:13.744Z,28.57
2018-04-07T18:50:40.684Z,30.10
2018-04-07T18:53:07.545Z,26.10
2018-04-07T18:55:34.498Z,27.33
2018-04-07T18:58:01.466Z,24.77
2018-04-07T19:00:28.394Z,24.93
2018-04-07T19:02:55.438Z,32.20
2018-04-07T19:05:22.394Z,26.80
2018-04-07T19:07:49.423Z,26.33
2018-04-07T19:10:16.418Z,26.67
2018-04-07T19:12:43.289Z,28.43
2018-04-07T19:15:10.168Z,26.90
2018-04-07T19:17:37.137Z,28.43
2018-04-07T19:20:04.097Z,28.00
2018-04-07T19:22:30.916Z,26.70
2018-04-07T19:24:57.781Z,28.07
2018-04-07T19:27:24.613Z,29.87
2018-04-07T19:29:51.492Z,25.43
2018-04-07T19:32:18.369Z,29.23
2018-04-07T19:34:45.274Z,27.63
2018-04-07T19:37:12.278Z,27.10
2018-04-07T19:39:39.146Z,29.20
2018-04-07T19:42:06.025Z,31.03
2018-04-07T19:44:32.973Z,28.97
2018-04-07T19:46:59.817Z,29.43
2018-04-07T19:49:26.788Z,29.33
2018-04-07T19:51:53.660Z,32.27
2018-04-07T19:54:20.569Z,31.83
2018-04-07T19:56:47.447Z,28.23
2018-04-07T19:59:14.263Z,30.07
2018-04-07T20:01:41.169Z,31.87
2018-04-07T20:04:08.052Z,27.00
2018-04-07T20:06:35.100Z,28.50
2018-04-07T20:09:01.933Z,29.57
2018-04-07T20:11:28.861Z,28.10
2018-04-07T20:13:55.777Z,29.87
2018-04-07T20:16:22.754Z,34.03
2018-04-07T20:18:49.670Z,32.13
2018-04-07T20:21:16.587Z,31.90
2018-04-07T20:23:43.469Z,28.27
2018-04-07T20:26:10.322Z,29.43
2018-04-07T20:28:37.143Z,28.13
2018-04-07T20:31:04.050Z,30.90
2018-04-07T20:33:31.032Z,29.23
2018-04-07T20:35:57.934Z,31.17
2018-04-07T20:38:24.801Z,30.50
2018-04-07T20:40:55.425Z,34.27
2018-04-07T20:43:22.345Z,30.20
2018-04-07T20:45:49.254Z,34.23
2018-04-07T20:48:16.174Z,32.57
2018-04-07T20:50:43.119Z,30.13
2018-04-07T20:53:09.942Z,31.93
2018-04-07T20:55:36.832Z,31.10
2018-04-07T20:58:03.659Z,34.77
2018-04-07T21:00:30.721Z,31.53
2018-04-07T21:02:57.672Z,36.03
2018-04-07T21:05:24.663Z,31.23
2018-04-07T21:07:51.706Z,31.97
2018-04-07T21:10:18.595Z,33.33
2018-04-07T21:12:45.443Z,35.43
2018-04-07T21:15:12.354Z,31.80
2018-04-07T21:17:39.179Z,32.80
2018-04-07T21:20:06.036Z,34.20
2018-04-07T21:22:32.893Z,31.63
2018-04-07T21:25:00.351Z,32.77
2018-04-07T21:27:27.260Z,28.70
2018-04-07T21:29:54.109Z,30.57
2018-04-07T21:32:21.062Z,31.63
2018-04-07T21:34:47.926Z,30.30
2018-04-07T21:37:14.809Z,35.37
2018-04-07T21:39:41.707Z,33.10
2018-04-07T21:42:08.633Z,35.03
2018-04-07T21:44:35.468Z,32.97
2018-04-07T21:47:02.369Z,32.93
2018-04-07T21:49:29.229Z,38.40
2018-04-07T21:51:56.078Z,39.03
2018-04-07T21:54:23.069Z,29.97
2018-04-07T21:56:50.075Z,36.17
2018-04-07T21:59:16.999Z,40.57
2018-04-07T22:01:43.889Z,38.23
2018-04-07T22:04:10.744Z,39.03
2018-04-07T22:06:37.700Z,37.43
2018-04-07T22:09:05.532Z,38.07
2018-04-07T22:11:32.434Z,34.10
2018-04-07T22:13:59.352Z,36.07
2018-04-07T22:16:26.273Z,34.53
2018-04-07T22:18:53.323Z,36.10
2018-04-07T22:21:20.161Z,34.97
2018-04-07T22:23:47.061Z,41.63
2018-04-07T22:26:13.996Z,36.23
2018-04-07T22:28:40.947Z,40.33
2018-04-07T22:31:07.979Z,42.47
2018-04-07T22:33:34.863Z,37.33
2018-04-07T22:36:01.734Z,39.77
2018-04-07T22:38:28.656Z,37.93
2018-04-07T22:40:55.629Z,38.27
2018-04-07T22:43:22.620Z,39.23
2018-04-07T22:45:49.481Z,47.17
2018-04-07T22:48:16.399Z,41.37
2018-04-07T22:50:43.364Z,44.90
2018-04-07T22:53:10.257Z,42.43
2018-04-07T22:55:37.143Z,42.37
2018-04-07T22:58:03.965Z,41.20
2018-04-07T23:00:30.827Z,44.43
2018-04-07T23:02:57.765Z,40.47
2018-04-07T23:05:24.702Z,39.60
2018-04-07T23:07:51.698Z,43.03
2018-04-07T23:10:18.501Z,43.37
2018-04-07T23:12:45.443Z,39.60
2018-04-07T23:15:12.304Z,44.30
2018-04-07T23:17:39.162Z,49.50
2018-04-07T23:20:06.101Z,41.10
2018-04-07T23:22:33.009Z,41.27
2018-04-07T23:24:59.932Z,41.07
2018-04-07T23:27:26.774Z,41.07
2018-04-07T23:29:53.724Z,45.27
2018-04-07T23:32:20.538Z,37.00
2018-04-07T23:34:47.450Z,43.50
2018-04-07T23:37:14.367Z,42.77
2018-04-07T23:39:41.234Z,49.43
2018-04-07T23:42:08.068Z,47.10
2018-04-07T23:44:34.993Z,45.90
2018-04-07T23:47:01.915Z,51.23
2018-04-07T23:49:28.776Z,43.70
2018-04-07T23:51:55.758Z,45.67
2018-04-07T23:54:22.629Z,45.50
2018-04-07T23:56:49.501Z,47.63
2018-04-07T23:59:16.364Z,48.40
